Time,TemperatureF,DewpointF,PressureIn,WindDirection,WindDirectionDegrees,WindSpeedMPH,WindSpeedGustMPH,Humidity,HourlyPrecipIn,Conditions,Clouds,dailyrainin,SoftwareType,DateUTC
2013-02-19 00:00:00,76.5,51.0,27.05,ESE,117,4.0,8.3,32,0.00,,---,0.00,VWS V14.01,2013-02-19 06:00:00,
2013-02-19 00:05:00,76.5,51.0,27.05,SSE,157,5.4,10.5,32,0.00,,---,0.00,VWS V14.01,2013-02-19 06:05:00,
2013-02-19 00:10:00,76.5,51.0,27.05,ESE,122,6.3,8.1,32,0.00,,---,0.00,VWS V14.01,2013-02-19 06:10:00,
2013-02-19 00:15:00,76.5,51.0,27.05,SE,146,7.6,11.9,32,0.00,,---,0.00,VWS V14.01,2013-02-19 06:15:00,
2013-02-19 00:20:00,76.5,51.0,27.05,ESE,110,10.1,10.1,32,0.00,,---,0.00,VWS V14.01,2013-02-19 06:20:00,
2013-02-19 00:25:00,76.5,51.0,27.02,SSE,149,8.7,12.8,32,0.00,,---,0.00,VWS V14.01,2013-02-19 06:25:00,
2013-02-19 00:30:00,76.5,51.0,27.02,SSE,165,7.6,10.5,32,0.00,,---,0.00,VWS V14.01,2013-02-19 06:30:00,
2013-02-19 00:35:00,76.5,51.0,27.02,ESE,120,5.4,9.6,32,0.00,,---,0.00,VWS V14.01,2013-02-19 06:35:00,
2013-02-19 00:40:00,76.5,51.0,27.02,South,169,8.3,8.3,32,0.00,,---,0.00,VWS V14.01,2013-02-19 06:40:00,
2013-02-19 00:45:00,76.5,51.0,27.02,SSE,153,9.2,17.0,32,0.00,,---,0.00,VWS V14.01,2013-02-19 06:45:00,
2013-02-19 00:50:00,76.5,51.0,27.02,East,86,10.1,10.1,32,0.00,,---,0.00,VWS V14.01,2013-02-19 06:50:00,
2013-02-19 00:55:00,76.5,51.0,27.02,SSE,148,7.2,8.3,32,0.00,,---,0.00,VWS V14.01,2013-02-19 06:55:00,
2013-02-19 01:00:00,76.5,51.0,27.02,SE,144,5.8,8.7,32,0.00,,---,0.00,VWS V14.01,2013-02-19 07:00:00,
2013-02-19 01:05:00,76.5,51.0,27.02,SSE,164,5.4,6.3,32,0.00,,---,0.00,VWS V14.01,2013-02-19 07:05:00,
2013-02-19 01:10:00,76.5,51.0,27.02,ESE,103,5.4,11.9,32,0.00,,---,0.00,VWS V14.01,2013-02-19 07:10:00,
2013-02-19 01:15:00,76.5,51.0,27.02,SE,140,3.6,9.6,32,0.00,,---,0.00,VWS V14.01,2013-02-19 07:15:00,
2013-02-19 01:20:00,76.5,51.0,27.02,East,91,2.2,10.1,32,0.00,,---,0.00,VWS V14.01,2013-02-19 07:20:00,
2013-02-19 01:25:00,76.5,51.0,27.02,SE,137,4.0,10.5,32,0.00,,---,0.00,VWS V14.01,2013-02-19 07:25:00,
2013-02-19 01:30:00,76.5,51.0,27.02,SE,127,6.3,10.1,32,0.00,,---,0.00,VWS V14.01,2013-02-19 07:30:00,
2013-02-19 01:35:00,76.5,51.0,27.02,SE,127,6.3,8.3,32,0.00,,---,0.00,VWS V14.01,2013-02-19 07:35:00,
2013-02-19 01:40:00,76.5,51.0,27.02,SE,130,5.4,8.7,32,0.00,,---,0.00,VWS V14.01,2013-02-19 07:40:00,
2013-02-19 01:45:00,76.5,51.0,27.02,SSE,151,10.1,11.0,32,0.00,,---,0.00,VWS V14.01,2013-02-19 07:45:00,
2013-02-19 01:50:00,76.5,51.0,27.02,ESE,121,6.3,8.7,32,0.00,,---,0.00,VWS V14.01,2013-02-19 07:50:00,
2013-02-19 01:55:00,76.5,51.0,27.02,SE,136,5.8,5.8,32,0.00,,---,0.00,VWS V14.01,2013-02-19 07:55:00,
2013-02-19 02:00:00,76.5,51.0,27.02,ENE,68,6.3,6.3,32,0.00,,---,0.00,VWS V14.01,2013-02-19 08:00:00,
2013-02-19 02:05:00,76.5,51.0,27.02,East,90,5.8,7.6,32,0.00,,---,0.00,VWS V14.01,2013-02-19 08:05:00,
2013-02-19 02:10:00,76.5,51.0,27.02,SE,130,11.4,14.5,32,0.00,,---,0.00,VWS V14.01,2013-02-19 08:10:00,
2013-02-19 02:15:00,76.5,51.0,27.02,East,95,11.4,11.4,32,0.00,,---,0.00,VWS V14.01,2013-02-19 08:15:00,
2013-02-19 02:20:00,76.5,51.0,27.02,East,89,11.9,11.9,32,0.00,,---,0.00,VWS V14.01,2013-02-19 08:20:00,
2013-02-19 02:25:00,76.5,51.0,26.99,ESE,109,5.8,7.6,32,0.00,,---,0.00,VWS V14.01,2013-02-19 08:25:00,
2013-02-19 02:30:00,76.5,51.0,26.99,ESE,103,10.5,10.5,32,0.00,,---,0.00,VWS V14.01,2013-02-19 08:30:00,
2013-02-19 02:35:00,76.5,51.0,26.99,ESE,102,5.4,8.1,32,0.00,,---,0.00,VWS V14.01,2013-02-19 08:35:00,
2013-02-19 02:40:00,76.5,51.0,26.99,NE,35,13.2,13.2,32,0.00,,---,0.00,VWS V14.01,2013-02-19 08:40:00,
2013-02-19 02:45:00,76.5,51.0,26.99,SE,126,5.8,5.8,32,0.00,,---,0.00,VWS V14.01,2013-02-19 08:45:00,
2013-02-19 02:50:00,76.5,51.0,26.99,ESE,111,4.0,11.0,32,0.00,,---,0.00,VWS V14.01,2013-02-19 08:50:00,
2013-02-19 02:55:00,76.5,51.0,26.99,SSE,166,13.2,19.2,32,0.00,,---,0.00,VWS V14.01,2013-02-19 08:55:00,
2013-02-19 03:00:00,76.5,51.0,26.99,SSE,160,11.0,11.0,32,0.00,,---,0.00,VWS V14.01,2013-02-19 09:00:00,
2013-02-19 03:05:00,76.5,51.0,26.99,SE,137,10.1,12.3,32,0.00,,---,0.00,VWS V14.01,2013-02-19 09:05:00,
2013-02-19 03:10:00,76.5,51.0,26.99,ESE,122,7.6,10.1,32,0.00,,---,0.00,VWS V14.01,2013-02-19 09:10:00,
2013-02-19 03:15:00,76.5,51.0,26.99,ESE,123,14.1,15.4,32,0.00,,---,0.00,VWS V14.01,2013-02-19 09:15:00,
2013-02-19 03:20:00,76.5,51.0,26.99,NE,56,5.4,8.3,32,0.00,,---,0.00,VWS V14.01,2013-02-19 09:20:00,
2013-02-19 03:25:00,76.5,51.0,26.99,ESE,104,4.9,8.7,32,0.00,,---,0.00,VWS V14.01,2013-02-19 09:25:00,
2013-02-19 03:30:00,76.5,51.0,26.99,SSW,194,5.8,13.2,32,0.00,,---,0.00,VWS V14.01,2013-02-19 09:30:00,
2013-02-19 03:35:00,76.5,51.0,26.99,SE,125,5.4,5.4,32,0.00,,---,0.00,VWS V14.01,2013-02-19 09:35:00,
2013-02-19 03:40:00,76.5,51.0,27.02,SE,125,5.8,6.3,32,0.00,,---,0.00,VWS V14.01,2013-02-19 09:40:00,
2013-02-19 03:45:00,76.5,51.0,27.02,SW,214,10.5,10.5,32,0.00,,---,0.00,VWS V14.01,2013-02-19 09:45:00,
2013-02-19 03:50:00,76.5,51.0,27.02,NE,40,2.7,6.3,32,0.00,,---,0.00,VWS V14.01,2013-02-19 09:50:00,
2013-02-19 03:55:00,76.5,51.0,27.02,SSW,209,4.9,11.0,32,0.00,,---,0.00,VWS V14.01,2013-02-19 09:55:00,
2013-02-19 04:00:00,76.5,51.0,27.02,ESE,109,3.6,3.6,32,0.00,,---,0.00,VWS V14.01,2013-02-19 10:00:00,
2013-02-19 04:05:00,76.5,51.0,27.02,ENE,69,5.8,5.8,32,0.00,,---,0.00,VWS V14.01,2013-02-19 10:05:00,
2013-02-19 04:10:00,76.5,51.0,26.99,NE,52,4.0,4.0,32,0.00,,---,0.00,VWS V14.01,2013-02-19 10:10:00,
2013-02-19 04:15:00,76.5,51.0,26.99,SSE,149,5.4,8.3,32,0.00,,---,0.00,VWS V14.01,2013-02-19 10:15:00,
2013-02-19 04:20:00,76.5,51.0,26.99,East,94,4.0,6.3,32,0.00,,---,0.00,VWS V14.01,2013-02-19 10:20:00,
2013-02-19 04:25:00,76.5,51.0,26.99,SSE,156,4.0,4.0,32,0.00,,---,0.00,VWS V14.01,2013-02-19 10:25:00,
2013-02-19 04:30:00,76.5,51.0,26.99,ENE,65,8.1,8.7,32,0.00,,---,0.00,VWS V14.01,2013-02-19 10:30:00,
2013-02-19 04:35:00,76.5,51.0,26.99,NE,47,11.0,11.0,32,0.00,,---,0.00,VWS V14.01,2013-02-19 10:35:00,
2013-02-19 04:40:00,76.5,51.0,26.99,East,79,11.0,11.0,32,0.00,,---,0.00,VWS V14.01,2013-02-19 10:40:00,
2013-02-19 04:45:00,76.5,51.0,26.99,NNE,24,4.0,5.4,32,0.00,,---,0.00,VWS V14.01,2013-02-19 10:45:00,
2013-02-19 04:50:00,76.5,51.0,26.99,East,100,8.1,8.1,32,0.00,,---,0.00,VWS V14.01,2013-02-19 10:50:00,
2013-02-19 04:55:00,76.5,51.0,27.02,SE,130,5.4,10.1,32,0.00,,---,0.00,VWS V14.01,2013-02-19 10:55:00,
2013-02-19 05:00:00,76.5,51.0,27.02,ESE,103,5.8,8.3,32,0.00,,---,0.00,VWS V14.01,2013-02-19 11:00:00,
2013-02-19 05:05:00,76.5,51.0,27.02,SSE,159,2.7,5.8,32,0.00,,---,0.00,VWS V14.01,2013-02-19 11:05:00,
2013-02-19 05:10:00,76.5,51.0,27.02,ENE,71,7.6,8.1,32,0.00,,---,0.00,VWS V14.01,2013-02-19 11:10:00,
2013-02-19 05:15:00,76.5,51.0,27.02,ENE,77,3.6,10.5,32,0.00,,---,0.00,VWS V14.01,2013-02-19 11:15:00,
2013-02-19 05:20:00,76.5,51.0,27.02,South,179,5.8,7.6,32,0.00,,---,0.00,VWS V14.01,2013-02-19 11:20:00,
2013-02-19 05:25:00,76.5,51.0,27.02,NW,316,2.7,2.7,32,0.00,,---,0.00,VWS V14.01,2013-02-19 11:25:00,
2013-02-19 05:30:00,76.5,51.0,27.02,East,93,3.6,8.3,32,0.00,,---,0.00,VWS V14.01,2013-02-19 11:30:00,
2013-02-19 05:35:00,76.5,51.0,27.02,South,177,3.1,5.4,32,0.00,,---,0.00,VWS V14.01,2013-02-19 11:35:00,
2013-02-19 05:40:00,76.5,51.0,27.02,ESE,104,3.6,7.6,32,0.00,,---,0.00,VWS V14.01,2013-02-19 11:40:00,
2013-02-19 05:45:00,76.5,51.0,27.02,North,0,3.1,4.9,32,0.00,,---,0.00,VWS V14.01,2013-02-19 11:45:00,
2013-02-19 05:50:00,76.5,51.0,27.02,SE,132,2.7,8.3,32,0.00,,---,0.00,VWS V14.01,2013-02-19 11:50:00,
2013-02-19 05:55:00,76.5,51.0,27.02,SW,236,2.2,4.9,32,0.00,,---,0.00,VWS V14.01,2013-02-19 11:55:00,
2013-02-19 06:00:00,76.5,51.0,27.02,East,101,5.8,5.8,32,0.00,,---,0.00,VWS V14.01,2013-02-19 12:00:00,
2013-02-19 06:05:00,76.5,51.0,27.02,SSE,161,6.3,6.3,32,0.00,,---,0.00,VWS V14.01,2013-02-19 12:05:00,
2013-02-19 06:10:00,76.5,51.0,27.02,SE,142,3.6,5.8,32,0.00,,---,0.00,VWS V14.01,2013-02-19 12:10:00,
2013-02-19 06:15:00,76.5,51.0,27.02,SE,143,2.2,5.4,32,0.00,,---,0.00,VWS V14.01,2013-02-19 12:15:00,
2013-02-19 06:20:00,76.5,51.0,27.02,SE,126,6.3,7.6,32,0.00,,---,0.00,VWS V14.01,2013-02-19 12:20:00,
2013-02-19 06:25:00,76.5,51.0,27.02,ESE,112,4.9,12.3,32,0.00,,---,0.00,VWS V14.01,2013-02-19 12:25:00,
2013-02-19 06:30:00,76.5,51.0,27.02,ESE,121,10.1,10.1,32,0.00,,---,0.00,VWS V14.01,2013-02-19 12:30:00,
2013-02-19 06:35:00,76.5,51.0,27.02,South,179,3.6,3.6,32,0.00,,---,0.00,VWS V14.01,2013-02-19 12:35:00,
2013-02-19 06:40:00,76.5,51.0,27.05,South,176,5.8,5.8,32,0.00,,---,0.00,VWS V14.01,2013-02-19 12:40:00,
2013-02-19 06:45:00,76.5,51.0,27.05,SSE,149,4.0,4.0,32,0.00,,---,0.00,VWS V14.01,2013-02-19 12:45:00,
2013-02-19 06:50:00,76.5,51.0,27.05,SSW,199,3.1,3.1,32,0.00,,---,0.00,VWS V14.01,2013-02-19 12:50:00,
2013-02-19 06:55:00,76.5,51.0,27.02,SSE,158,8.3,8.7,32,0.00,,---,0.00,VWS V14.01,2013-02-19 12:55:00,
2013-02-19 07:00:00,76.5,51.0,27.02,SSE,167,4.0,4.0,32,0.00,,---,0.00,VWS V14.01,2013-02-19 13:00:00,
2013-02-19 07:05:00,76.5,51.0,27.02,SSW,199,10.5,10.5,32,0.00,,---,0.00,VWS V14.01,2013-02-19 13:05:00,
2013-02-19 07:10:00,76.5,51.0,27.05,ESE,106,4.9,4.9,32,0.00,,---,0.00,VWS V14.01,2013-02-19 13:10:00,
2013-02-19 07:15:00,76.5,51.0,27.05,SE,139,5.8,5.8,32,0.00,,---,0.00,VWS V14.01,2013-02-19 13:15:00,
2013-02-19 07:20:00,76.5,51.0,27.05,East,96,5.4,8.1,32,0.00,,---,0.00,VWS V14.01,2013-02-19 13:20:00,
2013-02-19 07:25:00,76.5,51.0,27.05,East,88,10.5,10.5,32,0.00,,---,0.00,VWS V14.01,2013-02-19 13:25:00,
2013-02-19 07:30:00,76.5,51.0,27.05,ESE,121,10.1,10.1,32,0.00,,---,0.00,VWS V14.01,2013-02-19 13:30:00,
2013-02-19 07:35:00,76.5,51.0,27.05,SE,124,7.6,7.6,32,0.00,,---,0.00,VWS V14.01,2013-02-19 13:35:00,
2013-02-19 07:40:00,76.5,51.0,27.05,East,96,10.5,10.5,32,0.00,,---,0.00,VWS V14.01,2013-02-19 13:40:00,
2013-02-19 07:45:00,76.5,51.0,27.05,ESE,119,6.7,6.7,32,0.00,,---,0.00,VWS V14.01,2013-02-19 13:45:00,
2013-02-19 07:50:00,76.5,51.0,27.05,SE,135,6.3,11.0,32,0.00,,---,0.00,VWS V14.01,2013-02-19 13:50:00,
2013-02-19 07:55:00,76.5,51.0,27.05,ESE,111,5.4,11.4,32,0.00,,---,0.00,VWS V14.01,2013-02-19 13:55:00,
2013-02-19 08:00:00,76.5,51.0,27.05,East,97,5.8,5.8,32,0.00,,---,0.00,VWS V14.01,2013-02-19 14:00:00,
2013-02-19 08:05:00,76.5,51.0,27.05,SSE,165,4.0,4.0,32,0.00,,---,0.00,VWS V14.01,2013-02-19 14:05:00,
2013-02-19 08:10:00,76.5,51.0,27.08,East,98,10.1,10.1,32,0.00,,---,0.00,VWS V14.01,2013-02-19 14:10:00,
2013-02-19 08:15:00,76.5,51.0,27.08,SE,124,6.3,6.3,32,0.00,,---,0.00,VWS V14.01,2013-02-19 14:15:00,
2013-02-19 08:20:00,76.5,51.0,27.08,SE,146,4.5,4.5,32,0.00,,---,0.00,VWS V14.01,2013-02-19 14:20:00,
2013-02-19 08:25:00,76.5,51.0,27.08,ENE,76,4.0,8.7,32,0.00,,---,0.00,VWS V14.01,2013-02-19 14:25:00,
2013-02-19 08:30:00,76.5,51.0,27.08,East,92,5.8,9.2,32,0.00,,---,0.00,VWS V14.01,2013-02-19 14:30:00,
2013-02-19 08:35:00,76.5,51.0,27.08,ESE,106,12.3,12.3,32,0.00,,---,0.00,VWS V14.01,2013-02-19 14:35:00,
2013-02-19 08:40:00,76.5,51.0,27.08,East,84,8.7,11.4,32,0.00,,---,0.00,VWS V14.01,2013-02-19 14:40:00,
2013-02-19 08:45:00,76.5,51.0,27.08,SE,130,4.0,10.1,32,0.00,,---,0.00,VWS V14.01,2013-02-19 14:45:00,
2013-02-19 08:50:00,76.5,51.0,27.08,ESE,118,3.6,9.6,32,0.00,,---,0.00,VWS V14.01,2013-02-19 14:50:00,
2013-02-19 08:55:00,76.5,51.0,27.08,SE,130,5.8,5.8,32,0.00,,---,0.00,VWS V14.01,2013-02-19 14:55:00,
2013-02-19 09:00:00,76.5,51.0,27.08,ESE,106,5.4,7.6,32,0.00,,---,0.00,VWS V14.01,2013-02-19 15:00:00,
2013-02-19 09:05:00,76.5,51.0,27.08,ESE,106,6.3,10.5,32,0.00,,---,0.00,VWS V14.01,2013-02-19 15:05:00,
2013-02-19 09:10:00,76.5,51.0,27.08,ESE,110,4.0,6.3,32,0.00,,---,0.00,VWS V14.01,2013-02-19 15:10:00,
2013-02-19 09:15:00,76.5,51.0,27.08,SE,127,2.7,8.1,32,0.00,,---,0.00,VWS V14.01,2013-02-19 15:15:00,
2013-02-19 09:20:00,76.5,51.0,27.08,SSE,147,8.1,8.1,32,0.00,,---,0.00,VWS V14.01,2013-02-19 15:20:00,
2013-02-19 09:25:00,76.5,51.0,27.08,ESE,123,5.8,8.7,32,0.00,,---,0.00,VWS V14.01,2013-02-19 15:25:00,
2013-02-19 09:30:00,76.5,51.0,27.08,SE,141,6.3,8.7,32,0.00,,---,0.00,VWS V14.01,2013-02-19 15:30:00,
2013-02-19 09:35:00,76.5,51.0,27.08,ESE,114,8.7,8.7,32,0.00,,---,0.00,VWS V14.01,2013-02-19 15:35:00,
2013-02-19 09:40:00,76.5,51.0,27.08,ENE,62,15.4,15.4,32,0.00,,---,0.00,VWS V14.01,2013-02-19 15:40:00,
2013-02-19 09:45:00,76.5,51.0,27.08,ENE,62,21.0,21.0,32,0.00,,---,0.00,VWS V14.01,2013-02-19 15:45:00,
2013-02-19 09:50:00,76.5,51.0,27.08,SE,136,10.1,10.5,32,0.00,,---,0.00,VWS V14.01,2013-02-19 15:50:00,
2013-02-19 09:55:00,76.5,51.0,27.08,North,5,8.7,15.4,32,0.00,,---,0.00,VWS V14.01,2013-02-19 15:55:00,
2013-02-19 10:00:00,76.5,51.0,27.08,ESE,123,8.1,12.8,32,0.00,,---,0.00,VWS V14.01,2013-02-19 16:00:00,
2013-02-19 10:05:00,76.5,51.0,27.08,ENE,68,12.8,12.8,32,0.00,,---,0.00,VWS V14.01,2013-02-19 16:05:00,
2013-02-19 10:10:00,76.5,51.0,27.08,SE,126,8.3,8.3,32,0.00,,---,0.00,VWS V14.01,2013-02-19 16:10:00,
2013-02-19 10:15:00,76.5,51.0,27.08,SE,143,13.2,14.1,32,0.00,,---,0.00,VWS V14.01,2013-02-19 16:15:00,
2013-02-19 10:20:00,76.5,51.0,27.08,ESE,102,16.8,16.8,32,0.00,,---,0.00,VWS V14.01,2013-02-19 16:20:00,
2013-02-19 10:25:00,76.5,51.0,27.08,SE,127,14.5,14.5,32,0.00,,---,0.00,VWS V14.01,2013-02-19 16:25:00,
2013-02-19 10:30:00,76.5,51.0,27.08,SE,134,3.1,3.1,32,0.00,,---,0.00,VWS V14.01,2013-02-19 16:30:00,
2013-02-19 10:35:00,76.5,51.0,27.08,SSE,163,8.3,8.3,32,0.00,,---,0.00,VWS V14.01,2013-02-19 16:35:00,
2013-02-19 10:40:00,76.5,51.0,27.08,SSE,156,5.4,10.5,32,0.00,,---,0.00,VWS V14.01,2013-02-19 16:40:00,
2013-02-19 10:45:00,76.5,51.0,27.08,East,82,13.6,13.6,32,0.00,,---,0.00,VWS V14.01,2013-02-19 16:45:00,
2013-02-19 10:50:00,76.5,51.0,27.08,SE,135,11.0,15.0,32,0.00,,---,0.00,VWS V14.01,2013-02-19 16:50:00,
2013-02-19 10:55:00,76.5,51.0,27.08,SE,131,7.6,10.5,32,0.00,,---,0.00,VWS V14.01,2013-02-19 16:55:00,
2013-02-19 11:00:00,76.5,51.0,27.08,ENE,68,11.4,11.4,32,0.00,,---,0.00,VWS V14.01,2013-02-19 17:00:00,
2013-02-19 11:05:00,76.5,51.0,27.08,SE,130,4.0,6.7,32,0.00,,---,0.00,VWS V14.01,2013-02-19 17:05:00,
2013-02-19 11:10:00,76.5,51.0,27.08,East,90,11.0,11.0,32,0.00,,---,0.00,VWS V14.01,2013-02-19 17:10:00,
2013-02-19 11:15:00,76.5,51.0,27.08,SSE,167,5.8,8.1,32,0.00,,---,0.00,VWS V14.01,2013-02-19 17:15:00,
2013-02-19 11:20:00,76.5,51.0,27.08,East,89,12.3,12.3,32,0.00,,---,0.00,VWS V14.01,2013-02-19 17:20:00,
2013-02-19 11:25:00,76.5,51.0,27.08,SSE,147,5.8,5.8,32,0.00,,---,0.00,VWS V14.01,2013-02-19 17:25:00,
2013-02-19 11:30:00,76.5,51.0,27.08,ENE,77,5.4,11.0,32,0.00,,---,0.00,VWS V14.01,2013-02-19 17:30:00,
2013-02-19 11:35:00,76.5,51.0,27.08,East,85,13.2,14.5,32,0.00,,---,0.00,VWS V14.01,2013-02-19 17:35:00,
2013-02-19 11:40:00,76.5,51.0,27.08,ESE,109,11.0,15.0,32,0.00,,---,0.00,VWS V14.01,2013-02-19 17:40:00,
2013-02-19 11:45:00,76.5,51.0,27.08,ENE,72,5.8,12.3,32,0.00,,---,0.00,VWS V14.01,2013-02-19 17:45:00,
2013-02-19 11:50:00,76.5,51.0,27.08,East,87,11.0,12.8,32,0.00,,---,0.00,VWS V14.01,2013-02-19 17:50:00,
2013-02-19 11:55:00,76.5,51.0,27.08,NE,52,9.6,13.2,32,0.00,,---,0.00,VWS V14.01,2013-02-19 17:55:00,
2013-02-19 12:00:00,76.5,51.0,27.08,ESE,122,10.5,10.5,32,0.00,,---,0.00,VWS V14.01,2013-02-19 18:00:00,
2013-02-19 12:05:00,76.5,51.0,27.08,NE,50,7.6,7.6,32,0.00,,---,0.00,VWS V14.01,2013-02-19 18:05:00,
2013-02-19 12:10:00,76.5,51.0,27.08,East,99,8.7,8.7,32,0.00,,---,0.00,VWS V14.01,2013-02-19 18:10:00,
2013-02-19 12:15:00,76.5,51.0,27.08,SE,131,10.1,13.2,32,0.00,,---,0.00,VWS V14.01,2013-02-19 18:15:00,
2013-02-19 12:20:00,76.5,51.0,27.08,SE,124,11.0,11.0,32,0.00,,---,0.00,VWS V14.01,2013-02-19 18:20:00,
2013-02-19 12:25:00,76.5,51.0,27.08,South,183,5.8,7.6,32,0.00,,---,0.00,VWS V14.01,2013-02-19 18:25:00,
2013-02-19 12:30:00,76.5,51.0,27.08,East,97,5.8,9.2,32,0.00,,---,0.00,VWS V14.01,2013-02-19 18:30:00,
2013-02-19 12:35:00,76.5,51.0,27.08,SE,126,8.7,8.7,32,0.00,,---,0.00,VWS V14.01,2013-02-19 18:35:00,
2013-02-19 12:40:00,76.5,51.0,27.05,South,186,8.1,8.1,32,0.00,,---,0.00,VWS V14.01,2013-02-19 18:40:00,
2013-02-19 12:45:00,76.5,51.0,27.05,SE,134,4.9,8.1,32,0.00,,---,0.00,VWS V14.01,2013-02-19 18:45:00,
2013-02-19 12:50:00,76.5,51.0,27.05,SSE,154,5.8,6.3,32,0.00,,---,0.00,VWS V14.01,2013-02-19 18:50:00,
2013-02-19 12:55:00,76.5,51.0,27.05,East,99,9.2,9.2,32,0.00,,---,0.00,VWS V14.01,2013-02-19 18:55:00,
2013-02-19 13:00:00,76.5,51.0,27.05,East,101,6.7,11.0,32,0.00,,---,0.00,VWS V14.01,2013-02-19 19:00:00,
2013-02-19 13:05:00,76.5,51.0,27.05,ENE,62,6.3,6.3,32,0.00,,---,0.00,VWS V14.01,2013-02-19 19:05:00,
2013-02-19 13:10:00,76.5,51.0,27.05,ESE,102,5.8,7.6,32,0.00,,---,0.00,VWS V14.01,2013-02-19 19:10:00,
2013-02-19 13:15:00,76.5,51.0,27.05,East,90,10.1,15.9,32,0.00,,---,0.00,VWS V14.01,2013-02-19 19:15:00,
2013-02-19 13:20:00,76.5,51.0,27.05,ESE,117,4.0,7.6,32,0.00,,---,0.00,VWS V14.01,2013-02-19 19:20:00,
2013-02-19 13:25:00,76.5,51.0,27.05,SE,143,11.0,11.0,32,0.00,,---,0.00,VWS V14.01,2013-02-19 19:25:00,
2013-02-19 13:30:00,76.5,51.0,27.05,East,96,11.0,11.0,32,0.00,,---,0.00,VWS V14.01,2013-02-19 19:30:00,
2013-02-19 13:35:00,76.5,51.0,27.05,East,90,8.7,8.7,32,0.00,,---,0.00,VWS V14.01,2013-02-19 19:35:00,
2013-02-19 13:40:00,76.5,51.0,27.05,ENE,72,5.8,8.7,32,0.00,,---,0.00,VWS V14.01,2013-02-19 19:40:00,
2013-02-19 13:45:00,76.5,51.0,27.05,ESE,102,8.3,14.5,32,0.00,,---,0.00,VWS V14.01,2013-02-19 19:45:00,
2013-02-19 13:50:00,76.5,51.0,27.05,SE,132,19.2,19.2,32,0.00,,---,0.00,VWS V14.01,2013-02-19 19:50:00,
2013-02-19 13:55:00,76.5,51.0,27.02,ESE,123,5.4,11.0,32,0.00,,---,0.00,VWS V14.01,2013-02-19 19:55:00,
2013-02-19 14:00:00,76.5,51.0,27.02,ESE,111,9.6,9.6,32,0.00,,---,0.00,VWS V14.01,2013-02-19 20:00:00,
2013-02-19 14:05:00,76.5,51.0,27.02,East,91,8.7,11.0,32,0.00,,---,0.00,VWS V14.01,2013-02-19 20:05:00,
2013-02-19 14:10:00,76.5,51.0,27.02,ESE,106,8.3,8.3,32,0.00,,---,0.00,VWS V14.01,2013-02-19 20:10:00,
2013-02-19 14:15:00,76.5,51.0,27.02,East,84,6.3,6.3,32,0.00,,---,0.00,VWS V14.01,2013-02-19 20:15:00,
2013-02-19 14:20:00,76.5,51.0,27.02,ESE,108,4.0,5.4,32,0.00,,---,0.00,VWS V14.01,2013-02-19 20:20:00,
2013-02-19 14:25:00,76.5,51.0,27.02,ESE,115,7.6,11.0,32,0.00,,---,0.00,VWS V14.01,2013-02-19 20:25:00,
2013-02-19 14:30:00,76.5,51.0,27.02,ESE,112,4.9,12.3,32,0.00,,---,0.00,VWS V14.01,2013-02-19 20:30:00,
2013-02-19 14:35:00,76.5,51.0,27.02,East,83,10.5,12.8,32,0.00,,---,0.00,VWS V14.01,2013-02-19 20:35:00,
2013-02-19 14:40:00,76.5,51.0,27.02,SSE,150,5.4,5.4,32,0.00,,---,0.00,VWS V14.01,2013-02-19 20:40:00,
2013-02-19 14:45:00,76.5,51.0,27.02,SSW,207,3.6,7.6,32,0.00,,---,0.00,VWS V14.01,2013-02-19 20:45:00,
2013-02-19 14:50:00,76.5,51.0,27.02,ENE,69,5.8,7.6,32,0.00,,---,0.00,VWS V14.01,2013-02-19 20:50:00,
2013-02-19 14:55:00,76.5,51.0,27.02,SSE,160,4.0,8.7,32,0.00,,---,0.00,VWS V14.01,2013-02-19 20:55:00,
2013-02-19 15:00:00,76.5,51.0,27.02,SSE,157,8.3,10.5,32,0.00,,---,0.00,VWS V14.01,2013-02-19 21:00:00,
2013-02-19 15:05:00,76.5,51.0,27.02,East,86,8.1,8.1,32,0.00,,---,0.00,VWS V14.01,2013-02-19 21:05:00,
2013-02-19 15:10:00,76.5,51.0,27.02,SE,131,4.0,7.6,32,0.00,,---,0.00,VWS V14.01,2013-02-19 21:10:00,
2013-02-19 15:15:00,76.5,51.0,27.02,ESE,105,4.0,6.3,32,0.00,,---,0.00,VWS V14.01,2013-02-19 21:15:00,
2013-02-19 15:20:00,76.5,51.0,27.02,SE,134,7.2,7.2,32,0.00,,---,0.00,VWS V14.01,2013-02-19 21:20:00,
2013-02-19 15:25:00,76.5,51.0,27.02,SSE,154,4.0,4.9,32,0.00,,---,0.00,VWS V14.01,2013-02-19 21:25:00,
2013-02-19 15:30:00,76.5,51.0,27.02,ENE,65,6.3,10.1,32,0.00,,---,0.00,VWS V14.01,2013-02-19 21:30:00,
2013-02-19 15:35:00,76.5,51.0,27.02,SE,136,6.3,8.1,32,0.00,,---,0.00,VWS V14.01,2013-02-19 21:35:00,
2013-02-19 15:40:00,76.5,51.0,27.02,East,91,6.3,8.3,32,0.00,,---,0.00,VWS V14.01,2013-02-19 21:40:00,
2013-02-19 15:45:00,76.5,51.0,27.02,ENE,72,4.0,4.0,32,0.00,,---,0.00,VWS V14.01,2013-02-19 21:45:00,
2013-02-19 15:50:00,76.5,51.0,27.02,SE,138,3.1,6.3,32,0.00,,---,0.00,VWS V14.01,2013-02-19 21:50:00,
2013-02-19 15:55:00,76.5,51.0,27.02,East,99,2.7,12.8,32,0.00,,---,0.00,VWS V14.01,2013-02-19 21:55:00,
2013-02-19 16:00:00,76.5,51.0,27.02,SE,135,7.6,7.6,32,0.00,,---,0.00,VWS V14.01,2013-02-19 22:00:00,
2013-02-19 16:05:00,76.5,51.0,27.02,SE,138,4.9,4.9,32,0.00,,---,0.00,VWS V14.01,2013-02-19 22:05:00,
2013-02-19 16:10:00,76.5,51.0,27.02,SE,126,10.5,10.5,32,0.00,,---,0.00,VWS V14.01,2013-02-19 22:10:00,
2013-02-19 16:15:00,76.5,51.0,27.02,NE,47,8.1,8.1,32,0.00,,---,0.00,VWS V14.01,2013-02-19 22:15:00,
2013-02-19 16:20:00,76.5,51.0,27.02,SSE,160,8.3,10.1,32,0.00,,---,0.00,VWS V14.01,2013-02-19 22:20:00,
2013-02-19 16:25:00,76.5,51.0,27.02,East,101,5.4,7.6,32,0.00,,---,0.00,VWS V14.01,2013-02-19 22:25:00,
2013-02-19 16:30:00,76.5,51.0,27.02,East,90,8.3,8.3,32,0.00,,---,0.00,VWS V14.01,2013-02-19 22:30:00,
2013-02-19 16:35:00,76.5,51.0,27.02,SSE,162,4.9,11.0,32,0.00,,---,0.00,VWS V14.01,2013-02-19 22:35:00,
2013-02-19 16:40:00,76.5,51.0,27.02,ESE,123,8.1,10.1,32,0.00,,---,0.00,VWS V14.01,2013-02-19 22:40:00,
2013-02-19 16:45:00,76.5,51.0,27.02,SE,146,6.3,7.6,32,0.00,,---,0.00,VWS V14.01,2013-02-19 22:45:00,
2013-02-19 16:50:00,76.5,51.0,27.02,ESE,103,4.5,8.3,32,0.00,,---,0.00,VWS V14.01,2013-02-19 22:50:00,
2013-02-19 16:55:00,76.5,51.0,27.02,SSE,158,5.8,8.3,32,0.00,,---,0.00,VWS V14.01,2013-02-19 22:55:00,
2013-02-19 17:00:00,76.5,51.0,27.02,ESE,118,12.3,12.3,32,0.00,,---,0.00,VWS V14.01,2013-02-19 23:00:00,
2013-02-19 17:05:00,76.5,51.0,27.02,North,5,8.3,8.3,32,0.00,,---,0.00,VWS V14.01,2013-02-19 23:05:00,
2013-02-19 17:10:00,76.5,51.0,27.02,ESE,119,6.3,12.3,32,0.00,,---,0.00,VWS V14.01,2013-02-19 23:10:00,
2013-02-19 17:15:00,76.5,51.0,27.02,SE,131,10.5,12.3,32,0.00,,---,0.00,VWS V14.01,2013-02-19 23:15:00,
2013-02-19 17:20:00,76.5,51.0,27.02,ESE,118,8.1,8.1,32,0.00,,---,0.00,VWS V14.01,2013-02-19 23:20:00,
2013-02-19 17:25:00,76.5,51.0,27.05,SE,128,8.1,8.1,32,0.00,,---,0.00,VWS V14.01,2013-02-19 23:25:00,
2013-02-19 17:30:00,76.5,51.0,27.05,ESE,112,5.8,14.5,32,0.00,,---,0.00,VWS V14.01,2013-02-19 23:30:00,
2013-02-19 17:35:00,76.5,51.0,27.05,SSE,155,8.3,9.6,32,0.00,,---,0.00,VWS V14.01,2013-02-19 23:35:00,
2013-02-19 17:40:00,76.5,51.0,27.02,SSE,156,6.3,8.3,32,0.00,,---,0.00,VWS V14.01,2013-02-19 23:40:00,
2013-02-19 17:45:00,76.5,51.0,27.02,East,92,11.4,11.4,32,0.00,,---,0.00,VWS V14.01,2013-02-19 23:45:00,
2013-02-19 17:50:00,76.5,51.0,27.02,SE,141,4.0,8.3,32,0.00,,---,0.00,VWS V14.01,2013-02-19 23:50:00,
2013-02-19 17:55:00,76.5,51.0,27.02,SSE,162,6.7,6.7,32,0.00,,---,0.00,VWS V14.01,2013-02-19 23:55:00,
2013-02-19 18:00:00,76.5,51.0,27.02,SE,128,8.1,8.1,32,0.00,,---,0.00,VWS V14.01,2013-02-20 00:00:00,
2013-02-19 18:05:00,76.5,51.0,27.02,ESE,120,5.8,8.3,32,0.00,,---,0.00,VWS V14.01,2013-02-20 00:05:00,
2013-02-19 18:10:00,76.5,51.0,27.02,SE,146,6.3,10.1,32,0.00,,---,0.00,VWS V14.01,2013-02-20 00:10:00,
2013-02-19 18:15:00,76.5,51.0,27.02,ESE,109,8.7,10.1,32,0.00,,---,0.00,VWS V14.01,2013-02-20 00:15:00,
2013-02-19 18:20:00,76.5,51.0,27.02,ESE,103,11.0,11.0,32,0.00,,---,0.00,VWS V14.01,2013-02-20 00:20:00,
2013-02-19 18:25:00,76.5,51.0,27.02,East,91,5.8,10.1,32,0.00,,---,0.00,VWS V14.01,2013-02-20 00:25:00,
2013-02-19 18:30:00,76.5,51.0,27.02,SE,130,7.6,7.6,32,0.00,,---,0.00,VWS V14.01,2013-02-20 00:30:00,
2013-02-19 18:35:00,76.5,51.0,27.02,SE,139,8.3,8.3,32,0.00,,---,0.00,VWS V14.01,2013-02-20 00:35:00,
2013-02-19 18:40:00,76.5,51.0,27.02,SE,124,10.5,11.9,32,0.00,,---,0.00,VWS V14.01,2013-02-20 00:40:00,
2013-02-19 18:45:00,76.5,51.0,27.02,SE,135,5.8,8.7,32,0.00,,---,0.00,VWS V14.01,2013-02-20 00:45:00,
2013-02-19 18:50:00,76.5,51.0,27.02,ESE,110,7.6,14.5,32,0.00,,---,0.00,VWS V14.01,2013-02-20 00:50:00,
2013-02-19 18:55:00,76.5,51.0,27.02,SE,138,5.4,5.4,32,0.00,,---,0.00,VWS V14.01,2013-02-20 00:55:00,
2013-02-19 19:00:00,76.5,51.0,27.02,East,97,8.3,8.3,32,0.00,,---,0.00,VWS V14.01,2013-02-20 01:00:00,
2013-02-19 19:05:00,76.5,51.0,27.02,NE,49,8.3,8.3,32,0.00,,---,0.00,VWS V14.01,2013-02-20 01:05:00,
2013-02-19 19:10:00,76.5,51.0,27.05,SE,139,8.3,10.1,32,0.00,,---,0.00,VWS V14.01,2013-02-20 01:10:00,
2013-02-19 19:15:00,76.5,51.0,27.05,SSE,160,7.6,7.6,32,0.00,,---,0.00,VWS V14.01,2013-02-20 01:15:00,
2013-02-19 19:20:00,76.5,51.0,27.05,ENE,71,15.9,15.9,32,0.00,,---,0.00,VWS V14.01,2013-02-20 01:20:00,
2013-02-19 19:25:00,76.5,51.0,27.05,ESE,111,7.6,7.6,32,0.00,,---,0.00,VWS V14.01,2013-02-20 01:25:00,
2013-02-19 19:30:00,76.5,51.0,27.05,ESE,109,9.2,13.2,32,0.00,,---,0.00,VWS V14.01,2013-02-20 01:30:00,
2013-02-19 19:35:00,76.5,51.0,27.05,East,87,5.8,10.1,32,0.00,,---,0.00,VWS V14.01,2013-02-20 01:35:00,
2013-02-19 19:40:00,76.5,51.0,27.05,ESE,104,12.8,12.8,32,0.00,,---,0.00,VWS V14.01,2013-02-20 01:40:00,
2013-02-19 19:45:00,76.5,51.0,27.05,ESE,122,10.5,10.5,32,0.00,,---,0.00,VWS V14.01,2013-02-20 01:45:00,
2013-02-19 19:50:00,76.5,51.0,27.05,SE,145,10.1,12.3,32,0.00,,---,0.00,VWS V14.01,2013-02-20 01:50:00,
2013-02-19 19:55:00,76.5,51.0,27.05,SE,139,8.7,8.7,32,0.00,,---,0.00,VWS V14.01,2013-02-20 01:55:00,
2013-02-19 20:00:00,76.5,51.0,27.05,ESE,113,8.7,9.6,32,0.00,,---,0.00,VWS V14.01,2013-02-20 02:00:00,
2013-02-19 20:05:00,76.5,51.0,27.05,ESE,116,8.7,8.7,32,0.00,,---,0.00,VWS V14.01,2013-02-20 02:05:00,
2013-02-19 20:10:00,76.5,51.0,27.05,NE,47,8.7,10.5,32,0.00,,---,0.00,VWS V14.01,2013-02-20 02:10:00,
2013-02-19 20:15:00,76.5,51.0,27.05,East,87,11.9,15.0,32,0.00,,---,0.00,VWS V14.01,2013-02-20 02:15:00,
2013-02-19 20:20:00,76.5,51.0,27.05,SSE,164,5.8,11.9,32,0.00,,---,0.00,VWS V14.01,2013-02-20 02:20:00,
2013-02-19 20:24:00,76.5,51.0,27.05,ESE,112,11.9,11.9,32,0.00,,---,0.00,VWS V14.01,2013-02-20 02:24:00,
2013-02-19 20:29:00,76.5,51.0,27.05,SE,126,8.3,13.2,32,0.00,,---,0.00,VWS V14.01,2013-02-20 02:29:00,
2013-02-19 20:34:00,76.5,51.0,27.05,SE,133,5.4,8.7,32,0.00,,---,0.00,VWS V14.01,2013-02-20 02:34:00,
2013-02-19 20:39:00,76.5,51.0,27.05,SE,131,3.6,10.1,32,0.00,,---,0.00,VWS V14.01,2013-02-20 02:39:00,
2013-02-19 20:44:00,76.5,51.0,27.05,ESE,108,8.1,8.1,32,0.00,,---,0.00,VWS V14.01,2013-02-20 02:44:00,
2013-02-19 20:49:00,76.5,51.0,27.05,South,171,9.6,12.8,32,0.00,,---,0.00,VWS V14.01,2013-02-20 02:49:00,
2013-02-19 20:54:00,76.5,51.0,27.05,ESE,120,5.4,11.0,32,0.00,,---,0.00,VWS V14.01,2013-02-20 02:54:00,
2013-02-19 20:59:00,76.5,51.0,27.05,NE,34,15.4,15.4,32,0.00,,---,0.00,VWS V14.01,2013-02-20 02:59:00,
2013-02-19 21:04:00,76.5,51.0,27.05,SSE,151,6.3,6.3,32,0.00,,---,0.00,VWS V14.01,2013-02-20 03:04:00,
2013-02-19 21:09:00,76.5,51.0,27.05,SE,124,13.2,13.2,32,0.00,,---,0.00,VWS V14.01,2013-02-20 03:09:00,
2013-02-19 21:14:00,76.5,51.0,27.05,ESE,106,8.7,10.1,32,0.00,,---,0.00,VWS V14.01,2013-02-20 03:14:00,
2013-02-19 21:19:00,76.5,51.0,27.05,ESE,115,8.1,8.3,32,0.00,,---,0.00,VWS V14.01,2013-02-20 03:19:00,
2013-02-19 21:24:00,76.5,51.0,27.08,SE,131,8.1,12.8,32,0.00,,---,0.00,VWS V14.01,2013-02-20 03:24:00,
2013-02-19 21:29:00,76.5,51.0,27.08,SE,124,8.1,11.0,32,0.00,,---,0.00,VWS V14.01,2013-02-20 03:29:00,
2013-02-19 21:34:00,76.5,51.0,27.08,SSE,148,14.5,14.5,32,0.00,,---,0.00,VWS V14.01,2013-02-20 03:34:00,
2013-02-19 21:39:00,76.5,51.0,27.08,SE,142,12.8,12.8,32,0.00,,---,0.00,VWS V14.01,2013-02-20 03:39:00,
2013-02-19 21:44:00,76.5,51.0,27.08,SSE,148,8.7,8.7,32,0.00,,---,0.00,VWS V14.01,2013-02-20 03:44:00,
2013-02-19 21:49:00,76.5,51.0,27.08,ESE,122,7.6,10.5,32,0.00,,---,0.00,VWS V14.01,2013-02-20 03:49:00,
2013-02-19 21:54:00,76.5,51.0,27.08,ESE,112,10.1,10.5,32,0.00,,---,0.00,VWS V14.01,2013-02-20 03:54:00,
2013-02-19 21:59:00,76.5,51.0,27.08,SSE,153,4.0,6.3,32,0.00,,---,0.00,VWS V14.01,2013-02-20 03:59:00,
2013-02-19 22:04:00,76.5,51.0,27.08,SE,141,5.8,5.8,32,0.00,,---,0.00,VWS V14.01,2013-02-20 04:04:00,
2013-02-19 22:09:00,76.5,51.0,27.05,SE,139,8.1,8.1,32,0.00,,---,0.00,VWS V14.01,2013-02-20 04:09:00,
2013-02-19 22:14:00,76.5,51.0,27.05,SE,140,12.8,12.8,32,0.00,,---,0.00,VWS V14.01,2013-02-20 04:14:00,
2013-02-19 22:19:00,76.5,51.0,27.05,SE,129,12.3,12.3,32,0.00,,---,0.00,VWS V14.01,2013-02-20 04:19:00,
2013-02-19 22:24:00,76.5,51.0,27.05,East,96,12.8,17.4,32,0.00,,---,0.00,VWS V14.01,2013-02-20 04:24:00,
2013-02-19 22:29:00,76.5,51.0,27.05,SSE,151,9.6,9.6,32,0.00,,---,0.00,VWS V14.01,2013-02-20 04:29:00,
2013-02-19 22:34:00,76.5,51.0,27.05,SE,132,8.1,11.0,32,0.00,,---,0.00,VWS V14.01,2013-02-20 04:34:00,
2013-02-19 22:39:00,76.5,51.0,27.05,SE,139,8.7,14.1,32,0.00,,---,0.00,VWS V14.01,2013-02-20 04:39:00,
2013-02-19 22:44:00,76.5,51.0,27.05,SE,125,7.6,10.1,32,0.00,,---,0.00,VWS V14.01,2013-02-20 04:44:00,
2013-02-19 22:49:00,76.5,51.0,27.05,SE,127,6.3,8.3,32,0.00,,---,0.00,VWS V14.01,2013-02-20 04:49:00,
2013-02-19 22:54:00,76.5,51.0,27.05,SE,129,11.0,11.0,32,0.00,,---,0.00,VWS V14.01,2013-02-20 04:54:00,
2013-02-19 22:59:00,76.5,51.0,27.05,SE,140,8.3,8.3,32,0.00,,---,0.00,VWS V14.01,2013-02-20 04:59:00,
2013-02-19 23:00:00,76.5,51.0,27.05,SE,125,3.6,8.3,32,0.00,,---,0.00,VWS V14.01,2013-02-20 05:00:00,
2013-02-19 23:05:00,76.5,51.0,27.05,East,95,10.5,10.5,32,0.00,,---,0.00,VWS V14.01,2013-02-20 05:05:00,
2013-02-19 23:10:00,76.5,51.0,27.05,East,80,7.6,7.6,32,0.00,,---,0.00,VWS V14.01,2013-02-20 05:10:00,
2013-02-19 23:15:00,76.5,51.0,27.05,SE,124,8.1,8.1,32,0.00,,---,0.00,VWS V14.01,2013-02-20 05:15:00,
2013-02-19 23:20:00,76.5,51.0,27.05,SE,138,11.9,14.5,32,0.00,,---,0.00,VWS V14.01,2013-02-20 05:20:00,
2013-02-19 23:25:00,76.5,51.0,27.05,ESE,119,5.8,5.8,32,0.00,,---,0.00,VWS V14.01,2013-02-20 05:25:00,
2013-02-19 23:30:00,76.5,51.0,27.05,East,89,12.3,12.3,32,0.00,,---,0.00,VWS V14.01,2013-02-20 05:30:00,
2013-02-19 23:35:00,76.5,51.0,27.05,East,96,5.8,6.3,32,0.00,,---,0.00,VWS V14.01,2013-02-20 05:35:00,
2013-02-19 23:40:00,76.5,51.0,27.05,East,91,5.8,7.6,32,0.00,,---,0.00,VWS V14.01,2013-02-20 05:40:00,
2013-02-19 23:45:00,76.5,51.0,27.05,ESE,119,7.6,10.5,32,0.00,,---,0.00,VWS V14.01,2013-02-20 05:45:00,
2013-02-19 23:50:00,76.5,51.0,27.05,SE,144,7.6,11.0,32,0.00,,---,0.00,VWS V14.01,2013-02-20 05:50:00,
2013-02-19 23:55:00,76.5,51.0,27.05,ESE,113,5.8,8.1,32,0.00,,---,0.00,VWS V14.01,2013-02-20 05:55:00,